Bei Facebook empfehlenBei Twitter postenGoogle plusPinterest

Das Wetter im Erzgebirge am 03.07.2017

Wetter und Klima am 03.07.2017 Holzhau im Erzgebirge (630m ü.NN)
Letzte gemessene Temperatur und Uhrzeit der Messung23:45:00 Uhr13.50 °C
Temperatur (Maximum / Höchstwert) und Uhrzeit der Messung17:15:00 Uhr22.30 °C
Temperatur (Minimum / Tiefstwert) und Uhrzeit der Messung06:15:009.60 °C
Errechneter Absolutwert der Temperaturschwankungen zwischen Tmin und Tmax des Tages12.70 K
Errechnete Tagesmitteltemperatur15.74271 °C
Gesamt - Niederschlag des Tages (in flüssiger Form)0.00 Liter / m²
Luftdruck (Maximum / Höchstwert) und Zeitpunkt der Messung12:00:00 Uhr1018.90 hPa
Luftdruck (Minimum / Tiefstwert) und Zeitpunkt der Messung00:15:00 Uhr1016.10 hPa
Errechneter Absolutwert der Luftdruckschwankungen des Tages2.80 hPa
Höchste gemessene Windgeschwindigkeit und Uhrzeit der Messung14:00:00 Uhr660.96 km/h
Errechnete Windhäufigkeit in Relation zu den Messwerten des Tages12.50000 %
Niedrigste Windkühle (Windchill) und Zeitpunkt der Messung06:15:00 Uhr9.60 °C
Taupunkt (Maximum / Höchstwert) und Uhrzeit der Messung14:30:00 Uhr11.70 °C
Taupunkt (Minimum / Tiefstwert) und Uhrzeit der Messung06:00:008.00 °C
Anzahl der automatisch eingelesenen Messwerte 96

Detaillierte Wetter- und Klima- Messwerte für den 03.07.2017 in Holzhau im Erzgebirge (630m ü.NN)
ZeitTemperaturLuftdruckRel. LuftfeuchteWindWindrichtungWindchillTaupunktNiederschlag l/m²
23:45:0013.50 °C1016.50 hPa75.00 %9.20 °C 
23:30:0013.60 °C1016.40 hPa75.00 %9.30 °C 
23:15:0013.30 °C1016.20 hPa75.00 %9.00 °C 
23:00:0013.20 °C1016.20 hPa76.00 %9.10 °C 
22:45:0013.10 °C1016.20 hPa75.00 %8.80 °C 
22:30:0013.30 °C1016.50 hPa75.00 %9.00 °C 
22:15:0013.30 °C1016.20 hPa74.00 %8.80 °C 
22:00:0013.30 °C1016.60 hPa74.00 %8.80 °C 
21:45:0013.50 °C1016.60 hPa73.00 %8.80 °C 
21:30:0013.80 °C1016.80 hPa71.00 %8.60 °C 
21:15:0014.30 °C1016.60 hPa69.00 %8.70 °C 
21:00:0014.80 °C1016.60 hPa68.00 %9.00 °C 
20:45:0015.30 °C1016.60 hPa65.00 %8.80 °C 
20:30:0016.20 °C1016.60 hPa62.00 %8.90 °C 
20:15:0017.30 °C1016.70 hPa57.00 %8.70 °C 
20:00:0018.50 °C1016.80 hPa53.00 %8.70 °C 
19:45:0019.70 °C1016.70 hPa51.00 %9.30 °C 
19:30:0019.90 °C1016.60 hPa50.00 %9.20 °C 
19:15:0020.10 °C1016.80 hPa48.00 %8.80 °C 
19:00:0020.40 °C1016.90 hPa49.00 %9.30 °C 
18:45:0020.60 °C1016.80 hPa49.00 %9.50 °C 
18:30:0020.90 °C1017.00 hPa48.00 %9.50 °C 
18:15:0021.30 °C1017.20 hPa48.00 %9.90 °C 
18:00:0021.30 °C1017.30 hPa48.00 %9.90 °C 
17:45:0021.40 °C1017.50 hPa47.00 %40.32 km/hW22.20 °C9.60 °C 
17:30:0021.80 °C1017.50 hPa47.00 %2.52 km/hSSW21.80 °C10.00 °C 
17:15:0022.30 °C1017.50 hPa47.00 %10.50 °C 
17:00:0021.90 °C1017.70 hPa48.00 %10.40 °C 
16:45:0022.10 °C1017.60 hPa50.00 %11.20 °C 
16:30:0022.10 °C1017.50 hPa49.00 %10.90 °C 
16:15:0021.90 °C1017.70 hPa50.00 %5.04 km/hWNW21.90 °C11.00 °C 
16:00:0021.20 °C1017.70 hPa52.00 %16.92 km/hNW21.20 °C11.00 °C 
15:45:0021.50 °C1017.80 hPa51.00 %10.90 °C 
15:30:0021.00 °C1017.70 hPa51.00 %29.88 km/hWSW21.90 °C10.50 °C 
15:15:0020.40 °C1017.80 hPa55.00 %11.10 °C 
15:00:0020.40 °C1018.00 hPa52.00 %10.20 °C 
14:45:0021.60 °C1017.90 hPa52.00 %11.30 °C 
14:30:0021.10 °C1018.30 hPa55.00 %9.00 km/hWNW21.10 °C11.70 °C 
14:15:0021.10 °C1018.30 hPa54.00 %16.92 km/hWNW21.10 °C11.40 °C 
14:00:0020.80 °C1018.30 hPa54.00 %660.96 km/hN18.90 °C11.20 °C 
13:45:0020.10 °C1018.40 hPa56.00 %11.10 °C 
13:30:0019.80 °C1018.50 hPa55.00 %10.50 °C 
13:15:0020.40 °C1018.50 hPa55.00 %12.96 km/hWSW20.40 °C11.10 °C 
13:00:0020.40 °C1018.50 hPa56.00 %11.30 °C 
12:45:0020.00 °C1018.60 hPa56.00 %11.00 °C 
12:30:0019.80 °C1018.70 hPa57.00 %40.32 km/hSW20.20 °C11.00 °C 
12:15:0019.10 °C1018.80 hPa60.00 %11.20 °C 
12:00:0019.30 °C1018.90 hPa58.00 %27.36 km/hWNW20.00 °C10.80 °C 
11:45:0018.40 °C1018.80 hPa61.00 %10.70 °C 
11:30:0017.60 °C1018.70 hPa64.00 %10.70 °C 
11:15:0017.30 °C1018.70 hPa65.00 %10.70 °C 
11:00:0016.90 °C1018.90 hPa69.00 %11.20 °C 
10:45:0016.20 °C1018.80 hPa69.00 %10.50 °C 
10:30:0016.10 °C1018.80 hPa68.00 %10.20 °C 
10:15:0016.10 °C1018.70 hPa70.00 %10.60 °C 
10:00:0016.10 °C1018.80 hPa74.00 %11.50 °C 
09:45:0015.30 °C1018.70 hPa73.00 %10.50 °C 
09:30:0014.90 °C1018.70 hPa74.00 %10.30 °C 
09:15:0015.10 °C1018.80 hPa73.00 %10.30 °C 
09:00:0015.00 °C1018.70 hPa75.00 %10.60 °C 
08:45:0014.60 °C1018.60 hPa77.00 %10.60 °C 
08:30:0014.80 °C1018.40 hPa79.00 %11.20 °C 
08:15:0013.20 °C1018.50 hPa84.00 %10.60 °C 
08:00:0013.10 °C1018.50 hPa84.00 %10.50 °C 
07:45:0012.90 °C1018.30 hPa84.00 %10.30 °C 
07:30:0012.40 °C1018.00 hPa88.00 %10.50 °C 
07:15:0011.90 °C1018.00 hPa90.00 %10.30 °C 
07:00:0010.90 °C1018.00 hPa91.00 %9.50 °C 
06:45:0010.30 °C1017.80 hPa92.00 %9.10 °C 
06:30:0010.10 °C1017.90 hPa92.00 %8.90 °C 
06:15:009.60 °C1017.80 hPa91.00 %8.20 °C 
06:00:009.60 °C1017.60 hPa90.00 %8.00 °C 
05:45:009.90 °C1017.80 hPa90.00 %8.30 °C 
05:30:0010.20 °C1017.70 hPa90.00 %8.60 °C 
05:15:0010.30 °C1017.50 hPa90.00 %8.70 °C 
05:00:0010.50 °C1017.40 hPa91.00 %9.10 °C 
04:45:0010.70 °C1017.40 hPa90.00 %9.10 °C 
04:30:0011.10 °C1017.40 hPa91.00 %9.70 °C 
04:15:0011.30 °C1017.10 hPa91.00 %9.90 °C 
04:00:0011.60 °C1017.10 hPa92.00 %10.44 km/hWNW11.60 °C10.30 °C 
03:45:0011.70 °C1017.00 hPa92.00 %10.40 °C 
03:30:0011.80 °C1016.90 hPa92.00 %10.50 °C 
03:15:0011.90 °C1017.00 hPa92.00 %10.60 °C 
03:00:0011.90 °C1016.80 hPa92.00 %10.60 °C 
02:45:0011.90 °C1016.80 hPa92.00 %10.60 °C 
02:30:0011.90 °C1016.90 hPa92.00 %10.60 °C 
02:15:0012.10 °C1016.80 hPa92.00 %10.80 °C 
02:00:0012.10 °C1016.70 hPa93.00 %11.00 °C 
01:45:0012.10 °C1016.70 hPa93.00 %11.00 °C 
01:30:0012.10 °C1016.60 hPa93.00 %11.00 °C 
01:15:0012.00 °C1016.40 hPa92.00 %10.70 °C 
01:00:0011.90 °C1016.30 hPa92.00 %10.60 °C 
00:45:0011.90 °C1016.40 hPa92.00 %10.60 °C 
00:30:0011.90 °C1016.30 hPa92.00 %10.60 °C 
00:15:0012.00 °C1016.10 hPa92.00 %10.70 °C 
00:00:0012.10 °C1016.10 hPa92.00 %10.80 °C 

Permanenter Link zu dieser Seite: Wetter im Erzgebirge am 03.07.2017
Performance-Info: Die Erstellung der Seite / Statistik(en) / Tabelle(n) erforderte 5 Datenbankserver-Abfrage(n) und dauerte 128 Millisekunden. (Dieser Messwert ist von der Gesamt-Auslastung des Servers abhängig.)
Erzgebirge - Wetter | Erzgebirge - Wetter (Mobilgeräte) | Komplette Klimadatenbank